Time;durP1;ratioP1;P1;durP2;ratioP2;P2;SDS_P1;SDS_P2;PMS_P1;PMS_P2;Temp;Humidity;BMP_temperature;BMP_pressure;BME280_temperature;BME280_humidity;BME280_pressure;Samples;Min_cycle;Max_cycle;Signal;HPM_P1;HPM_P2
2021/11/05 00:02:24;;;;;;;4.78;2.10;;;;;;;6.05;nan;100608.28;5098405;27;20454;-83
2021/11/05 00:04:49;;;;;;;4.72;2.40;;;;;;;6.05;nan;100625.06;5099892;28;20053;-84
2021/11/05 00:07:15;;;;;;;4.47;2.80;;;;;;;6.02;nan;100622.84;5093938;28;20046;-83
2021/11/05 00:09:42;;;;;;;5.53;2.78;;;;;;;6.01;nan;100617.75;5100278;27;20038;-86
2021/11/05 00:12:08;;;;;;;4.90;2.83;;;;;;;6.12;nan;100653.44;5089603;28;20020;-84
2021/11/05 00:14:34;;;;;;;6.03;2.40;;;;;;;6.10;nan;100656.31;5098770;28;20132;-85
2021/11/05 00:17:00;;;;;;;5.97;2.65;;;;;;;6.02;nan;100648.63;5089831;28;20538;-82
2021/11/05 00:19:25;;;;;;;6.82;3.47;;;;;;;6.05;nan;100654.31;5087108;28;20501;-84
2021/11/05 00:21:51;;;;;;;5.97;3.15;;;;;;;6.17;nan;100694.31;5080153;28;20020;-84
2021/11/05 00:24:16;;;;;;;5.65;2.90;;;;;;;6.03;nan;100653.72;5086708;28;20027;-84
2021/11/05 00:26:42;;;;;;;6.10;3.22;;;;;;;5.96;nan;100628.25;5093054;28;20355;-84
2021/11/05 00:29:10;;;;;;;4.15;2.90;;;;;;;5.98;nan;100636.81;5084014;28;20031;-84
2021/11/05 00:31:35;;;;;;;5.15;2.55;;;;;;;6.05;nan;100669.47;5085827;28;20024;-85
2021/11/05 00:34:01;;;;;;;5.70;3.22;;;;;;;5.93;nan;100737.72;5099027;28;20016;-84
2021/11/05 00:36:26;;;;;;;5.32;2.85;;;;;;;5.92;nan;100787.41;5093364;28;20028;-84
2021/11/05 00:38:52;;;;;;;8.18;3.30;;;;;;;5.92;nan;100803.34;5097638;28;20020;-85
2021/11/05 00:41:17;;;;;;;4.40;2.80;;;;;;;5.88;nan;100814.63;5089231;28;20024;-85
2021/11/05 00:43:43;;;;;;;6.70;3.00;;;;;;;5.95;nan;100852.66;5091872;28;20025;-84
2021/11/05 00:46:12;;;;;;;6.45;2.78;;;;;;;5.98;nan;100868.19;5095120;28;20019;-84
2021/11/05 00:48:39;;;;;;;6.25;2.20;;;;;;;6.04;nan;100902.72;5100003;28;20071;-84
2021/11/05 00:51:05;;;;;;;5.68;2.63;;;;;;;5.96;nan;100887.03;5097212;28;20109;-85
2021/11/05 00:53:32;;;;;;;3.28;2.58;;;;;;;5.93;nan;100894.63;5086889;28;20020;-84
2021/11/05 00:55:57;;;;;;;4.45;2.63;;;;;;;5.92;nan;100891.13;5093644;28;20485;-84
2021/11/05 00:58:23;;;;;;;3.67;2.13;;;;;;;5.94;nan;100917.53;5087961;28;20050;-85
2021/11/05 01:00:49;;;;;;;3.53;2.25;;;;;;;5.92;nan;100919.56;5090203;28;20048;-85
2021/11/05 01:03:14;;;;;;;5.68;2.60;;;;;;;5.85;nan;100911.59;5089413;28;20031;-84
2021/11/05 01:05:40;;;;;;;5.68;2.55;;;;;;;5.94;nan;100939.63;5091226;28;20457;-83
2021/11/05 01:08:07;;;;;;;4.07;2.13;;;;;;;5.82;nan;100911.22;5097532;28;20043;-84
2021/11/05 01:10:35;;;;;;;4.70;2.55;;;;;;;5.79;nan;100912.44;5093011;28;20023;-84
2021/11/05 01:13:05;;;;;;;3.75;2.00;;;;;;;5.85;nan;100932.06;5093784;28;20484;-85
2021/11/05 01:15:31;;;;;;;3.55;2.03;;;;;;;5.88;nan;100950.22;5094048;28;20035;-84
2021/11/05 01:17:57;;;;;;;2.40;1.63;;;;;;;5.90;nan;100958.84;5106174;28;20026;-84
2021/11/05 01:20:23;;;;;;;4.72;2.08;;;;;;;5.87;nan;100956.59;5096178;28;20028;-85
2021/11/05 01:22:49;;;;;;;2.33;1.45;;;;;;;5.86;nan;100955.75;5084554;28;20024;-85
2021/11/05 01:25:15;;;;;;;2.85;1.73;;;;;;;5.83;nan;100953.53;5088069;28;20059;-85
2021/11/05 01:27:43;;;;;;;2.28;1.52;;;;;;;5.82;nan;100953.75;5103413;28;20120;-85
2021/11/05 01:30:10;;;;;;;3.88;1.52;;;;;;;5.78;nan;100944.56;5097607;27;20032;-85
2021/11/05 01:32:37;;;;;;;4.28;1.95;;;;;;;5.97;nan;101004.84;5082517;28;20036;-84
2021/11/05 01:35:03;;;;;;;4.03;1.80;;;;;;;5.87;nan;100504.53;5083788;28;20031;-84
2021/11/05 01:37:29;;;;;;;1.70;1.60;;;;;;;5.86;nan;100514.38;5084100;28;20020;-85
2021/11/05 01:39:55;;;;;;;3.70;1.80;;;;;;;5.81;nan;100511.56;5091494;28;20023;-84
2021/11/05 01:42:20;;;;;;;2.15;1.95;;;;;;;5.78;nan;100508.56;5090658;28;20035;-85
2021/11/05 01:44:46;;;;;;;2.53;1.70;;;;;;;5.82;nan;100517.69;5094636;28;20027;-85
2021/11/05 01:47:12;;;;;;;4.00;1.92;;;;;;;5.80;nan;100527.75;5095536;28;20059;-85
2021/11/05 01:49:38;;;;;;;3.00;1.90;;;;;;;5.88;nan;100535.41;5087267;28;20551;-85
2021/11/05 01:52:04;;;;;;;3.17;2.20;;;;;;;5.89;nan;100542.34;5081981;28;20559;-83
2021/11/05 01:54:30;;;;;;;3.90;1.90;;;;;;;5.83;nan;100537.94;5111468;28;20024;-81
2021/11/05 01:56:55;;;;;;;3.95;2.13;;;;;;;5.90;nan;100550.13;5092565;28;20038;-84
2021/11/05 01:59:27;;;;;;;2.85;2.15;;;;;;;5.92;nan;100553.38;5092837;28;20020;-85
2021/11/05 02:01:55;;;;;;;4.80;2.42;;;;;;;5.81;nan;100566.59;5086125;28;20107;-85
2021/11/05 02:04:20;;;;;;;4.35;2.30;;;;;;;5.87;nan;100565.69;5083924;28;20024;-84
2021/11/05 02:07:02;;;;;;;3.33;2.20;;;;;;;5.85;nan;100568.59;5086925;28;20475;-84
2021/11/05 02:09:43;;;;;;;2.75;2.08;;;;;;;5.89;nan;100572.41;5089046;28;20086;-84
2021/11/05 02:12:12;;;;;;;4.78;2.10;;;;;;;5.95;nan;100584.06;5080034;28;20024;-84
2021/11/05 02:14:42;;;;;;;2.92;2.40;;;;;;;5.96;nan;100580.38;5085769;28;20028;-84
2021/11/05 02:17:09;;;;;;;4.85;3.08;;;;;;;5.92;nan;100584.47;5089590;28;20531;-84
2021/11/05 02:19:34;;;;;;;2.80;2.50;;;;;;;5.92;nan;100585.31;5086244;28;20035;-83
2021/11/05 02:22:02;;;;;;;4.30;2.55;;;;;;;5.96;nan;100596.31;5102069;28;20023;-84
2021/11/05 02:24:29;;;;;;;4.53;2.53;;;;;;;5.96;nan;100596.31;5103469;28;20038;-83
2021/11/05 02:26:58;;;;;;;3.95;2.70;;;;;;;5.99;nan;100595.88;5101754;28;20032;-84
2021/11/05 02:29:28;;;;;;;3.83;3.03;;;;;;;6.00;nan;100608.16;5090878;28;20012;-82
2021/11/05 02:31:54;;;;;;;5.22;2.80;;;;;;;6.04;nan;100615.44;5099074;28;20562;-82
2021/11/05 02:34:20;;;;;;;5.90;3.00;;;;;;;5.99;nan;100617.16;5092611;28;20114;-84
2021/11/05 02:36:46;;;;;;;5.88;2.75;;;;;;;5.99;nan;100610.00;5089016;28;20080;-84
2021/11/05 02:39:12;;;;;;;3.83;2.55;;;;;;;5.94;nan;100633.78;5091349;27;20540;-84
2021/11/05 02:41:40;;;;;;;4.43;2.90;;;;;;;5.93;nan;100640.13;5094290;27;20077;-84
2021/11/05 02:44:06;;;;;;;3.65;2.63;;;;;;;5.90;nan;100637.06;5115221;27;20426;-85
2021/11/05 02:46:31;;;;;;;4.82;2.97;;;;;;;5.93;nan;100629.50;5111575;27;20485;-84
2021/11/05 02:49:04;;;;;;;3.33;2.60;;;;;;;5.85;nan;100647.53;5098314;27;20042;-83
2021/11/05 02:51:31;;;;;;;3.65;2.97;;;;;;;5.85;nan;100644.88;5105490;27;20058;-84
2021/11/05 02:53:57;;;;;;;4.03;2.85;;;;;;;5.88;nan;100644.44;5095503;28;20088;-83
2021/11/05 02:56:23;;;;;;;6.20;3.08;;;;;;;5.85;nan;100643.03;5099658;27;20031;-82
2021/11/05 02:58:50;;;;;;;4.43;2.90;;;;;;;5.82;nan;100662.09;5110760;27;20016;-84
2021/11/05 03:01:16;;;;;;;5.95;2.80;;;;;;;5.86;nan;100667.78;5093841;27;20031;-83
2021/11/05 03:03:42;;;;;;;5.75;2.97;;;;;;;5.81;nan;100681.72;5106263;27;20026;-84
2021/11/05 03:06:07;;;;;;;4.43;2.88;;;;;;;5.84;nan;100672.50;5115221;27;20542;-84
2021/11/05 03:08:34;;;;;;;5.50;3.20;;;;;;;5.81;nan;100683.56;5091784;28;20028;-85
2021/11/05 03:10:59;;;;;;;5.88;3.05;;;;;;;5.76;nan;100703.66;5097721;28;20039;-84
2021/11/05 03:13:25;;;;;;;3.45;2.97;;;;;;;5.76;nan;100694.88;5096769;28;20160;-84
2021/11/05 03:15:50;;;;;;;3.92;3.53;;;;;;;5.81;nan;100691.56;5101613;28;20039;-83
2021/11/05 03:18:17;;;;;;;4.72;4.13;;;;;;;5.76;nan;100703.66;5091702;28;20031;-84
2021/11/05 03:20:45;;;;;;;4.82;4.13;;;;;;;5.79;nan;100720.22;5090150;28;20020;-84
2021/11/05 03:23:14;;;;;;;3.60;3.30;;;;;;;5.81;nan;100726.94;5088480;28;20115;-84
2021/11/05 03:25:41;;;;;;;8.48;5.53;;;;;;;5.79;nan;100728.19;5082666;28;20401;-84
2021/11/05 03:28:08;;;;;;;4.43;4.03;;;;;;;5.76;nan;100726.78;5095104;28;20124;-85
2021/11/05 03:30:34;;;;;;;4.60;4.20;;;;;;;5.76;nan;100738.22;5087458;28;20031;-84
2021/11/05 03:33:00;;;;;;;4.97;4.57;;;;;;;5.75;nan;100741.91;5082772;28;20426;-84
2021/11/05 03:35:26;;;;;;;5.32;5.00;;;;;;;5.80;nan;100751.06;5088934;28;20051;-85
2021/11/05 03:37:51;;;;;;;6.13;5.40;;;;;;;5.81;nan;100753.53;5090135;28;20466;-84
2021/11/05 03:40:18;;;;;;;6.10;5.60;;;;;;;5.82;nan;100759.66;5092755;28;20058;-83
2021/11/05 03:42:48;;;;;;;5.70;5.30;;;;;;;5.90;nan;100770.84;5087777;28;20031;-83
2021/11/05 03:45:14;;;;;;;6.68;5.82;;;;;;;5.85;nan;100780.47;5083809;28;20031;-84
2021/11/05 03:47:39;;;;;;;7.78;7.13;;;;;;;5.90;nan;100781.47;5104655;27;20027;-84
2021/11/05 03:50:05;;;;;;;7.95;7.45;;;;;;;5.93;nan;100802.34;5107530;27;20355;-83
2021/11/05 03:52:30;;;;;;;8.15;7.55;;;;;;;5.93;nan;100796.22;5098181;28;20038;-84
2021/11/05 03:54:56;;;;;;;9.07;8.32;;;;;;;5.97;nan;100792.09;5084011;28;20028;-85
2021/11/05 03:57:21;;;;;;;10.23;9.32;;;;;;;5.96;nan;100801.09;5084906;28;20040;-83
2021/11/05 03:59:47;;;;;;;9.98;9.18;;;;;;;6.01;nan;100806.59;5090098;28;20497;-84
2021/11/05 04:02:12;;;;;;;11.00;10.10;;;;;;;5.96;nan;100825.84;5095846;28;20028;-84
2021/11/05 04:04:38;;;;;;;11.05;10.18;;;;;;;6.01;nan;100825.19;5093891;28;20595;-84
2021/11/05 04:07:03;;;;;;;11.10;10.30;;;;;;;5.94;nan;100821.78;5090589;28;20104;-84
2021/11/05 04:09:29;;;;;;;11.48;10.63;;;;;;;6.03;nan;100839.09;5090574;28;20044;-84
2021/11/05 04:11:54;;;;;;;11.07;10.48;;;;;;;5.99;nan;100840.56;5095570;28;20035;-84
2021/11/05 04:14:20;;;;;;;12.70;11.65;;;;;;;5.99;nan;100857.34;5097547;27;20048;-84
2021/11/05 04:16:46;;;;;;;12.55;11.63;;;;;;;6.00;nan;100855.50;5094890;27;20024;-84
2021/11/05 04:19:12;;;;;;;12.27;11.23;;;;;;;6.10;nan;100858.47;5119670;27;20027;-84
2021/11/05 04:21:37;;;;;;;13.38;12.27;;;;;;;6.14;nan;100867.66;5109157;27;20393;-83
2021/11/05 04:24:06;;;;;;;13.95;12.90;;;;;;;6.14;nan;100869.53;5097939;27;20023;-84
2021/11/05 04:26:31;;;;;;;15.32;14.10;;;;;;;6.12;nan;100891.03;5096269;28;20031;-83
2021/11/05 04:28:57;;;;;;;18.00;16.90;;;;;;;6.16;nan;100878.91;5092204;28;20042;-84
2021/11/05 04:31:22;;;;;;;19.52;18.25;;;;;;;6.20;nan;100879.28;5094392;27;20031;-84
2021/11/05 04:33:48;;;;;;;20.90;19.50;;;;;;;6.24;nan;100891.13;5097447;27;20647;-85
2021/11/05 04:36:15;;;;;;;21.20;19.83;;;;;;;6.14;nan;100904.09;5105260;28;20063;-84
2021/11/05 04:38:41;;;;;;;22.17;20.85;;;;;;;6.22;nan;100899.31;5082303;27;20026;-84
2021/11/05 04:41:07;;;;;;;23.08;21.33;;;;;;;6.20;nan;100913.88;5097754;27;20019;-84
2021/11/05 04:43:32;;;;;;;23.42;21.92;;;;;;;6.24;nan;100918.53;5092857;28;20042;-84
2021/11/05 04:45:58;;;;;;;24.02;22.33;;;;;;;6.27;nan;100910.13;5114922;27;20027;-84
2021/11/05 04:48:23;;;;;;;24.17;22.38;;;;;;;6.33;nan;100917.25;5093475;28;20130;-84
2021/11/05 04:50:49;;;;;;;24.48;22.88;;;;;;;6.28;nan;100925.09;5094959;27;20645;-85
2021/11/05 04:53:15;;;;;;;24.48;22.83;;;;;;;6.27;nan;100927.94;5095517;27;20084;-84
2021/11/05 04:55:40;;;;;;;26.25;24.08;;;;;;;6.26;nan;100947.59;5087472;28;20469;-85
2021/11/05 04:58:06;;;;;;;26.88;24.77;;;;;;;6.27;nan;100923.44;5090699;28;20043;-83
2021/11/05 05:00:31;;;;;;;26.50;24.40;;;;;;;6.29;nan;100936.53;5090914;27;20037;-84
2021/11/05 05:02:57;;;;;;;28.00;25.10;;;;;;;6.42;nan;100948.91;5080058;28;20024;-84
2021/11/05 05:05:24;;;;;;;27.55;25.40;;;;;;;6.40;nan;100957.13;5082509;28;20027;-84
2021/11/05 05:07:50;;;;;;;27.75;25.50;;;;;;;6.32;nan;100968.84;5097390;28;20035;-85
2021/11/05 05:10:18;;;;;;;26.90;24.58;;;;;;;6.40;nan;100959.78;5108891;27;20028;-84
2021/11/05 05:12:44;;;;;;;27.80;25.60;;;;;;;6.45;nan;100972.44;5090994;28;20023;-84
2021/11/05 05:15:12;;;;;;;29.17;26.58;;;;;;;6.45;nan;100978.56;5088615;28;20035;-85
2021/11/05 05:17:38;;;;;;;28.88;26.58;;;;;;;6.49;nan;100971.00;5093587;27;20570;-85
2021/11/05 05:20:07;;;;;;;29.80;27.02;;;;;;;6.50;nan;100981.44;5108754;27;20038;-82
2021/11/05 05:22:32;;;;;;;30.08;27.33;;;;;;;6.54;nan;100982.63;5089460;28;20028;-82
2021/11/05 05:24:58;;;;;;;30.13;27.17;;;;;;;6.62;nan;100990.34;5092673;27;20553;-84
2021/11/05 05:27:23;;;;;;;37.80;27.70;;;;;;;6.61;nan;101001.22;5092606;28;20052;-84
2021/11/05 05:29:50;;;;;;;30.88;27.73;;;;;;;6.60;nan;101015.56;5091815;28;20028;-85
2021/11/05 05:32:16;;;;;;;31.05;28.05;;;;;;;6.68;nan;100996.66;5098229;27;20486;-82
2021/11/05 05:34:41;;;;;;;29.88;27.38;;;;;;;6.68;nan;101015.31;5090150;28;20024;-84
2021/11/05 05:37:07;;;;;;;31.70;28.67;;;;;;;6.66;nan;101030.69;5091496;28;20089;-85
2021/11/05 05:39:33;;;;;;;30.90;28.08;;;;;;;6.76;nan;101028.34;5088040;27;20053;-84
2021/11/05 05:41:58;;;;;;;30.88;27.85;;;;;;;6.79;nan;101032.41;5111426;27;20088;-84
2021/11/05 05:44:24;;;;;;;32.53;29.55;;;;;;;6.74;nan;101050.91;5089621;28;20031;-84
2021/11/05 05:46:50;;;;;;;30.90;28.23;;;;;;;6.80;nan;101050.84;5091392;27;20020;-82
2021/11/05 05:49:15;;;;;;;31.98;28.50;;;;;;;6.88;nan;101060.44;5091714;28;20016;-84
2021/11/05 05:51:41;;;;;;;31.33;28.33;;;;;;;6.80;nan;101066.81;5093858;28;20055;-83
2021/11/05 05:54:07;;;;;;;33.00;29.30;;;;;;;6.89;nan;101060.22;5084473;27;20203;-84
2021/11/05 05:56:50;;;;;;;32.72;29.30;;;;;;;6.82;nan;101080.78;5092958;28;20058;-87
2021/11/05 05:59:15;;;;;;;31.65;28.75;;;;;;;6.85;nan;101077.66;5100394;27;20106;-84
2021/11/05 06:01:41;;;;;;;32.55;29.30;;;;;;;6.84;nan;101094.69;5098309;27;20053;-85
2021/11/05 06:04:06;;;;;;;33.38;29.55;;;;;;;6.95;nan;101095.81;5089149;28;20031;-84
2021/11/05 06:06:33;;;;;;;32.90;29.42;;;;;;;6.91;nan;101094.63;5085895;28;20072;-84
2021/11/05 06:08:58;;;;;;;31.77;29.00;;;;;;;6.83;nan;101097.56;5090967;27;20477;-84
2021/11/05 06:11:24;;;;;;;34.03;30.70;;;;;;;6.85;nan;101116.81;5090205;28;20047;-84
2021/11/05 06:13:51;;;;;;;34.60;31.05;;;;;;;6.85;nan;101112.28;5085051;28;20027;-84
2021/11/05 06:16:17;;;;;;;33.38;30.13;;;;;;;6.92;nan;101115.72;5094422;28;20019;-84
2021/11/05 06:18:42;;;;;;;32.13;29.17;;;;;;;6.88;nan;101125.19;5097895;28;20040;-84
2021/11/05 06:21:08;;;;;;;32.63;29.52;;;;;;;7.00;nan;101127.94;5104060;27;20481;-84
2021/11/05 06:23:33;;;;;;;33.00;29.52;;;;;;;6.92;nan;101144.22;5098147;28;20066;-84
2021/11/05 06:25:59;;;;;;;32.03;28.80;;;;;;;7.07;nan;101138.59;5089119;28;20439;-83
2021/11/05 06:28:25;;;;;;;32.40;29.00;;;;;;;7.02;nan;101143.75;5110969;28;20054;-84
2021/11/05 06:30:52;;;;;;;31.25;28.30;;;;;;;7.07;nan;101154.56;5110677;28;20027;-83
2021/11/05 06:33:18;;;;;;;32.95;29.02;;;;;;;7.07;nan;101151.91;5089366;28;20036;-82
2021/11/05 06:35:48;;;;;;;31.85;28.85;;;;;;;7.04;nan;101163.00;5119512;28;20016;-84
2021/11/05 06:38:15;;;;;;;30.98;28.23;;;;;;;7.14;nan;101166.00;5100552;28;20016;-84
2021/11/05 06:40:41;;;;;;;31.00;28.08;;;;;;;7.13;nan;101162.50;5096744;28;20118;-84
2021/11/05 06:43:08;;;;;;;31.10;28.27;;;;;;;7.16;nan;101170.06;5094356;28;20070;-84
2021/11/05 06:45:34;;;;;;;31.15;28.20;;;;;;;7.10;nan;101175.44;5087741;28;20035;-83
2021/11/05 06:48:05;;;;;;;30.73;28.02;;;;;;;7.17;nan;101178.88;5112180;28;20425;-84
2021/11/05 06:50:30;;;;;;;30.35;27.45;;;;;;;7.22;nan;101192.41;5096409;28;20024;-83
2021/11/05 06:52:56;;;;;;;31.33;28.35;;;;;;;7.22;nan;101197.72;5088844;28;20030;-83
2021/11/05 06:55:22;;;;;;;30.45;27.55;;;;;;;7.26;nan;101206.94;5094999;28;21011;-84
2021/11/05 06:57:47;;;;;;;31.05;28.38;;;;;;;7.24;nan;101209.81;5111609;28;20020;-84
2021/11/05 07:00:19;;;;;;;30.38;27.73;;;;;;;7.28;nan;101229.66;5109401;28;20045;-84
2021/11/05 07:02:45;;;;;;;31.02;28.10;;;;;;;7.27;nan;101230.69;5089091;28;20059;-84
2021/11/05 07:05:13;;;;;;;32.42;29.25;;;;;;;7.20;nan;101234.44;5074673;28;20103;-84
2021/11/05 07:07:39;;;;;;;31.25;27.98;;;;;;;7.26;nan;101247.72;5089361;28;20066;-84
2021/11/05 07:10:06;;;;;;;30.88;28.02;;;;;;;7.23;nan;101239.34;5085100;28;20024;-84
2021/11/05 07:12:32;;;;;;;31.27;28.38;;;;;;;7.17;nan;101249.00;5091834;28;20515;-84
2021/11/05 07:14:58;;;;;;;31.75;28.88;;;;;;;7.33;nan;101258.34;5085040;28;20482;-83
2021/11/05 07:17:24;;;;;;;32.00;28.52;;;;;;;7.30;nan;101269.44;5093603;28;20123;-84
2021/11/05 07:19:50;;;;;;;30.60;27.80;;;;;;;7.23;nan;101274.00;5073956;28;20024;-84
2021/11/05 07:22:17;;;;;;;29.38;26.98;;;;;;;7.24;nan;101292.44;5085784;28;20057;-84
2021/11/05 07:24:43;;;;;;;31.42;28.35;;;;;;;7.23;nan;101300.63;5089191;27;20027;-83
2021/11/05 07:27:10;;;;;;;30.42;27.42;;;;;;;7.30;nan;101296.09;5091224;28;20034;-85
2021/11/05 07:29:41;;;;;;;29.60;27.00;;;;;;;7.28;nan;101304.28;5085157;28;20021;-84
2021/11/05 07:32:08;;;;;;;30.95;28.15;;;;;;;7.32;nan;101306.53;5090491;27;21048;-84
2021/11/05 07:34:40;;;;;;;30.92;28.13;;;;;;;7.30;nan;101303.25;5089252;27;20058;-83
2021/11/05 07:37:11;;;;;;;29.42;27.05;;;;;;;7.22;nan;101315.00;5078859;28;20027;-84
2021/11/05 07:39:37;;;;;;;29.35;26.45;;;;;;;7.26;nan;101321.53;5093620;27;20015;-84
2021/11/05 07:42:02;;;;;;;30.10;27.23;;;;;;;7.35;nan;101325.56;5103430;22;20390;-51
2021/11/05 07:44:28;;;;;;;29.70;27.02;;;;;;;7.32;nan;101333.19;5059482;28;20078;-54
2021/11/05 07:46:53;;;;;;;29.20;26.92;;;;;;;7.40;nan;101341.78;5059191;28;20036;-54
2021/11/05 07:49:19;;;;;;;29.95;27.20;;;;;;;7.39;nan;101342.00;5055675;28;20017;-52
2021/11/05 07:51:44;;;;;;;30.13;27.38;;;;;;;7.23;nan;101349.44;5065376;28;20661;-52
2021/11/05 07:54:10;;;;;;;29.65;27.05;;;;;;;7.28;nan;101364.78;5078727;22;20044;-56
2021/11/05 07:56:36;;;;;;;30.88;28.13;;;;;;;7.29;nan;101358.44;5024901;28;20029;-55
2021/11/05 07:59:04;;;;;;;30.52;27.77;;;;;;;7.32;nan;101360.66;5037722;28;20024;-55
2021/11/05 08:01:30;;;;;;;29.30;26.83;;;;;;;7.31;nan;101361.69;5049225;28;20033;-55
2021/11/05 08:03:56;;;;;;;28.88;26.30;;;;;;;7.43;nan;101369.84;5042508;28;20118;-53
2021/11/05 08:06:21;;;;;;;28.63;26.02;;;;;;;7.39;nan;101384.66;5043728;28;20595;-55
2021/11/05 08:08:47;;;;;;;27.95;25.52;;;;;;;7.38;nan;101375.00;5046116;28;21561;-55
2021/11/05 08:11:13;;;;;;;27.17;24.88;;;;;;;7.41;nan;101382.59;5022747;28;20036;-55
2021/11/05 08:13:39;;;;;;;28.63;26.02;;;;;;;7.39;nan;101384.66;5048265;28;20536;-56
2021/11/05 08:16:04;;;;;;;28.33;25.55;;;;;;;7.47;nan;101387.88;5046183;28;20021;-56
2021/11/05 08:18:30;;;;;;;28.45;26.13;;;;;;;7.54;nan;101385.16;5048894;28;20380;-54
2021/11/05 08:20:55;;;;;;;28.77;26.08;;;;;;;7.51;nan;101404.25;5044625;28;20040;-54
2021/11/05 08:23:22;;;;;;;28.52;26.10;;;;;;;7.51;nan;101405.09;5050198;28;20458;-53
2021/11/05 08:25:48;;;;;;;29.98;27.25;;;;;;;7.57;nan;101404.25;5049840;28;20025;-53
2021/11/05 08:28:18;;;;;;;28.90;26.40;;;;;;;7.57;nan;101414.09;5020299;28;20039;-54
2021/11/05 08:30:45;;;;;;;29.35;26.33;;;;;;;7.61;nan;101419.81;5040842;28;20077;-54
2021/11/05 08:33:11;;;;;;;29.30;26.30;;;;;;;7.54;nan;101426.00;5043278;28;20029;-55
2021/11/05 08:35:38;;;;;;;27.88;25.40;;;;;;;7.53;nan;101408.34;5039384;28;20044;-55
2021/11/05 08:38:08;;;;;;;26.65;24.23;;;;;;;7.56;nan;101434.63;5051451;28;20025;-55
2021/11/05 08:40:34;;;;;;;26.95;24.08;;;;;;;7.63;nan;101441.75;5053274;28;20402;-52
2021/11/05 08:42:59;;;;;;;26.73;24.27;;;;;;;7.57;nan;101440.78;5042968;28;20037;-53
2021/11/05 08:45:25;;;;;;;27.90;25.38;;;;;;;7.66;nan;101450.16;5043992;28;20036;-54
2021/11/05 08:47:50;;;;;;;28.55;26.02;;;;;;;7.78;nan;101453.81;5053138;28;20481;-54
2021/11/05 08:50:21;;;;;;;26.95;24.95;;;;;;;7.69;nan;101452.41;5036705;28;20036;-53
2021/11/05 08:52:47;;;;;;;27.10;24.65;;;;;;;7.69;nan;101475.59;5040094;28;20635;-54
2021/11/05 08:55:14;;;;;;;26.95;24.70;;;;;;;7.75;nan;101464.91;5046733;28;20029;-52
2021/11/05 08:57:40;;;;;;;26.33;24.23;;;;;;;7.73;nan;101463.47;5046003;28;20067;-53
2021/11/05 09:00:18;;;;;;;26.52;24.17;;;;;;;7.73;nan;101479.50;5045000;28;20017;-55
2021/11/05 09:02:45;;;;;;;24.73;22.73;;;;;;;7.80;nan;101480.28;5038454;28;21572;-54
2021/11/05 09:05:11;;;;;;;25.30;23.10;;;;;;;7.70;nan;101490.56;5041203;28;20490;-54
2021/11/05 09:07:37;;;;;;;24.48;22.42;;;;;;;7.73;nan;101492.81;5040534;28;20029;-52
2021/11/05 09:10:06;;;;;;;21.70;19.80;;;;;;;7.73;nan;101488.31;5047193;28;20052;-54
2021/11/05 09:12:32;;;;;;;20.65;18.80;;;;;;;7.82;nan;101495.03;5041083;28;20114;-55
2021/11/05 09:14:58;;;;;;;22.77;20.60;;;;;;;7.81;nan;101492.56;5047943;28;20062;-54
2021/11/05 09:17:23;;;;;;;24.05;21.75;;;;;;;7.92;nan;101499.94;5028455;28;20368;-55
2021/11/05 09:19:49;;;;;;;23.33;21.10;;;;;;;7.81;nan;101501.41;5039085;28;20035;-54
2021/11/05 09:22:14;;;;;;;21.40;19.40;;;;;;;7.84;nan;101500.97;5037473;28;20502;-54
2021/11/05 09:24:40;;;;;;;19.27;17.52;;;;;;;7.90;nan;101515.34;5041996;28;20033;-54
2021/11/05 09:27:06;;;;;;;18.67;16.95;;;;;;;7.89;nan;101524.34;5041059;28;20056;-54
2021/11/05 09:29:32;;;;;;;17.05;15.57;;;;;;;7.89;nan;101535.84;5046725;28;20762;-53
2021/11/05 09:31:57;;;;;;;15.57;14.18;;;;;;;7.87;nan;101526.41;5047426;28;20032;-54
2021/11/05 09:34:23;;;;;;;16.45;14.35;;;;;;;7.79;nan;101532.81;5047439;28;20414;-54
2021/11/05 09:36:48;;;;;;;13.95;12.70;;;;;;;7.91;nan;101532.97;5047368;28;20429;-54
2021/11/05 09:39:14;;;;;;;11.63;10.52;;;;;;;7.80;nan;101553.13;5046717;28;20024;-54
2021/11/05 09:41:40;;;;;;;8.65;7.68;;;;;;;7.82;nan;101542.25;5038446;28;20029;-52
2021/11/05 09:44:06;;;;;;;13.02;6.65;;;;;;;7.95;nan;101554.72;5040429;28;20489;-54
2021/11/05 09:46:32;;;;;;;10.00;7.45;;;;;;;7.75;nan;101566.28;5046785;28;20393;-53
2021/11/05 09:48:58;;;;;;;13.23;7.95;;;;;;;7.77;nan;101571.41;5040667;28;20045;-54
2021/11/05 09:51:24;;;;;;;8.38;6.45;;;;;;;7.93;nan;101575.47;5043689;28;20072;-55
2021/11/05 09:53:49;;;;;;;12.82;7.72;;;;;;;7.89;nan;101567.84;5043856;28;20107;-55
2021/11/05 09:56:18;;;;;;;10.02;7.38;;;;;;;7.87;nan;101580.59;5044917;28;20046;-54
2021/11/05 09:58:44;;;;;;;13.00;7.75;;;;;;;7.97;nan;101577.50;5046760;28;20025;-55
2021/11/05 10:01:12;;;;;;;9.77;7.00;;;;;;;7.86;nan;101586.13;5046497;28;20059;-53
2021/11/05 10:03:38;;;;;;;8.90;7.28;;;;;;;7.98;nan;101586.31;5044433;28;20060;-55
2021/11/05 10:06:09;;;;;;;10.20;6.95;;;;;;;7.96;nan;101591.03;5046199;28;20020;-54
2021/11/05 10:08:36;;;;;;;11.70;7.85;;;;;;;7.97;nan;101598.84;5040941;28;20509;-54
2021/11/05 10:11:20;;;;;;;14.95;8.02;;;;;;;7.92;nan;101598.66;5040987;28;20043;-55
2021/11/05 10:13:46;;;;;;;9.23;6.50;;;;;;;7.97;nan;101604.19;5046845;28;20485;-53
2021/11/05 10:16:15;;;;;;;8.80;5.30;;;;;;;7.88;nan;101608.09;5044592;28;20025;-53
2021/11/05 10:19:04;;;;;;;6.13;4.30;;;;;;;7.75;nan;101619.63;5045559;28;20029;-52
2021/11/05 10:21:43;;;;;;;11.07;4.60;;;;;;;7.77;nan;101627.41;5045543;28;20032;-55
2021/11/05 10:24:17;;;;;;;9.15;5.25;;;;;;;7.67;nan;101622.50;5037345;28;20090;-54
2021/11/05 10:26:45;;;;;;;8.20;4.65;;;;;;;7.77;nan;101624.75;5041630;28;20352;-53
2021/11/05 10:29:28;;;;;;;8.15;4.35;;;;;;;7.65;nan;101643.22;5032078;28;20127;-53
2021/11/05 10:32:06;;;;;;;8.60;4.57;;;;;;;7.73;nan;101647.53;5042467;28;20029;-55
2021/11/05 10:34:47;;;;;;;8.75;4.40;;;;;;;7.73;nan;101640.34;5045319;28;21088;-55
2021/11/05 10:37:13;;;;;;;6.88;3.60;;;;;;;7.67;nan;101651.03;5037855;28;20467;-53
2021/11/05 10:39:52;;;;;;;7.10;3.28;;;;;;;7.63;nan;101649.78;5044363;28;20025;-55
2021/11/05 10:42:47;;;;;;;6.18;3.63;;;;;;;7.72;nan;101667.22;5039310;28;20033;-54
2021/11/05 10:45:13;;;;;;;6.95;3.38;;;;;;;7.69;nan;101670.31;5045853;28;20044;-54
2021/11/05 10:47:53;;;;;;;4.28;2.75;;;;;;;7.67;nan;101670.50;5046673;28;20194;-53
2021/11/05 10:50:28;;;;;;;3.10;2.45;;;;;;;7.72;nan;101667.22;5043035;28;20041;-53
2021/11/05 10:53:05;;;;;;;4.82;2.42;;;;;;;7.75;nan;101677.50;5042456;28;20449;-55
2021/11/05 10:55:49;;;;;;;4.63;2.88;;;;;;;7.77;nan;101670.94;5045992;28;20032;-55
2021/11/05 10:58:29;;;;;;;5.38;2.50;;;;;;;7.72;nan;101675.22;5048021;28;20028;-55
2021/11/05 11:00:58;;;;;;;7.03;2.70;;;;;;;7.74;nan;101683.88;5045264;28;20033;-54
2021/11/05 11:03:33;;;;;;;5.88;2.20;;;;;;;7.77;nan;101691.44;5047651;28;20070;-55
2021/11/05 11:06:06;;;;;;;6.07;2.97;;;;;;;7.87;nan;101689.97;5046399;28;20036;-55
2021/11/05 11:08:34;;;;;;;5.50;2.72;;;;;;;7.89;nan;101685.25;5050060;28;20029;-54
2021/11/05 11:11:22;;;;;;;5.82;2.85;;;;;;;7.88;nan;101694.28;5048753;28;20260;-54
2021/11/05 11:13:59;;;;;;;4.75;2.97;;;;;;;7.77;nan;101704.78;5048816;28;20104;-55
2021/11/05 11:16:31;;;;;;;6.72;2.78;;;;;;;7.68;nan;101704.16;5049902;28;20028;-54
2021/11/05 11:19:18;;;;;;;5.10;2.85;;;;;;;7.68;nan;101712.16;5048913;28;20024;-55
2021/11/05 11:21:47;;;;;;;6.72;2.75;;;;;;;7.73;nan;101709.72;5048552;28;20021;-55
2021/11/05 11:24:16;;;;;;;4.88;2.67;;;;;;;7.69;nan;101708.47;5048790;28;20086;-55
2021/11/05 11:26:44;;;;;;;4.40;2.75;;;;;;;7.72;nan;101717.91;5048633;28;20036;-56
2021/11/05 11:29:11;;;;;;;4.53;2.58;;;;;;;7.86;nan;101716.88;5049680;28;20115;-58
2021/11/05 11:31:38;;;;;;;8.77;3.10;;;;;;;7.84;nan;101713.59;5050120;28;20208;-54
2021/11/05 11:34:06;;;;;;;3.45;2.60;;;;;;;7.84;nan;101721.59;5048472;28;20032;-55
2021/11/05 11:36:35;;;;;;;4.55;2.13;;;;;;;7.80;nan;101723.03;5044969;28;20040;-55
2021/11/05 11:39:04;;;;;;;4.22;2.20;;;;;;;7.71;nan;101732.25;5048042;28;20027;-55
2021/11/05 11:41:32;;;;;;;5.00;2.05;;;;;;;7.86;nan;101722.22;5048079;28;20037;-55
2021/11/05 11:44:00;;;;;;;3.40;1.75;;;;;;;7.97;nan;101737.59;5044374;28;20025;-55